sensor_id;sensor_type;location;lat;lon;timestamp;P1;durP1;ratioP1;P2;durP2;ratioP2
2838;SDS011;1427;48.510;9.060;2023-11-21T00:00:49;45.50;;;2.57;;
2838;SDS011;1427;48.510;9.060;2023-11-21T00:03:17;45.10;;;2.37;;
2838;SDS011;1427;48.510;9.060;2023-11-21T00:05:45;45.10;;;2.27;;
2838;SDS011;1427;48.510;9.060;2023-11-21T00:08:14;45.53;;;2.50;;
2838;SDS011;1427;48.510;9.060;2023-11-21T00:10:42;45.00;;;1.90;;
2838;SDS011;1427;48.510;9.060;2023-11-21T00:13:12;45.93;;;2.50;;
2838;SDS011;1427;48.510;9.060;2023-11-21T00:15:40;44.97;;;2.00;;
2838;SDS011;1427;48.510;9.060;2023-11-21T00:18:08;45.13;;;1.90;;
2838;SDS011;1427;48.510;9.060;2023-11-21T00:20:36;45.20;;;2.40;;
2838;SDS011;1427;48.510;9.060;2023-11-21T00:23:04;45.13;;;1.90;;
2838;SDS011;1427;48.510;9.060;2023-11-21T00:25:33;46.30;;;2.43;;
2838;SDS011;1427;48.510;9.060;2023-11-21T00:28:01;45.23;;;1.90;;
2838;SDS011;1427;48.510;9.060;2023-11-21T00:30:31;46.20;;;2.53;;
2838;SDS011;1427;48.510;9.060;2023-11-21T00:32:59;45.13;;;2.03;;
2838;SDS011;1427;48.510;9.060;2023-11-21T00:35:27;45.03;;;1.77;;
2838;SDS011;1427;48.510;9.060;2023-11-21T00:37:55;45.17;;;2.10;;
2838;SDS011;1427;48.510;9.060;2023-11-21T00:40:24;44.87;;;1.70;;
2838;SDS011;1427;48.510;9.060;2023-11-21T00:42:52;45.67;;;2.33;;
2838;SDS011;1427;48.510;9.060;2023-11-21T00:45:22;45.17;;;2.37;;
2838;SDS011;1427;48.510;9.060;2023-11-21T00:47:51;45.17;;;2.10;;
2838;SDS011;1427;48.510;9.060;2023-11-21T00:50:19;45.10;;;1.70;;
2838;SDS011;1427;48.510;9.060;2023-11-21T00:52:48;46.13;;;2.30;;
2838;SDS011;1427;48.510;9.060;2023-11-21T00:55:18;45.57;;;2.90;;
2838;SDS011;1427;48.510;9.060;2023-11-21T00:57:46;46.20;;;2.93;;
2838;SDS011;1427;48.510;9.060;2023-11-21T01:00:14;47.17;;;2.57;;
2838;SDS011;1427;48.510;9.060;2023-11-21T01:02:43;46.27;;;2.50;;
2838;SDS011;1427;48.510;9.060;2023-11-21T01:05:13;44.87;;;1.83;;
2838;SDS011;1427;48.510;9.060;2023-11-21T01:07:41;45.23;;;1.97;;
2838;SDS011;1427;48.510;9.060;2023-11-21T01:10:09;45.40;;;2.30;;
2838;SDS011;1427;48.510;9.060;2023-11-21T01:12:38;46.07;;;3.13;;
2838;SDS011;1427;48.510;9.060;2023-11-21T01:15:06;45.13;;;2.10;;
2838;SDS011;1427;48.510;9.060;2023-11-21T01:17:35;44.80;;;2.10;;
2838;SDS011;1427;48.510;9.060;2023-11-21T01:20:05;45.10;;;1.80;;
2838;SDS011;1427;48.510;9.060;2023-11-21T01:22:40;45.83;;;1.80;;
2838;SDS011;1427;48.510;9.060;2023-11-21T01:25:08;45.00;;;2.13;;
2838;SDS011;1427;48.510;9.060;2023-11-21T01:27:37;45.30;;;2.40;;
2838;SDS011;1427;48.510;9.060;2023-11-21T01:30:05;44.50;;;1.77;;
2838;SDS011;1427;48.510;9.060;2023-11-21T01:32:36;45.00;;;2.07;;
2838;SDS011;1427;48.510;9.060;2023-11-21T01:35:06;45.67;;;2.57;;
2838;SDS011;1427;48.510;9.060;2023-11-21T01:37:36;44.80;;;1.73;;
2838;SDS011;1427;48.510;9.060;2023-11-21T01:40:06;44.97;;;1.83;;
2838;SDS011;1427;48.510;9.060;2023-11-21T01:42:40;48.73;;;2.97;;
2838;SDS011;1427;48.510;9.060;2023-11-21T01:45:10;45.47;;;2.43;;
2838;SDS011;1427;48.510;9.060;2023-11-21T01:47:39;45.10;;;1.93;;
2838;SDS011;1427;48.510;9.060;2023-11-21T01:50:09;44.80;;;1.83;;
2838;SDS011;1427;48.510;9.060;2023-11-21T01:52:42;45.10;;;2.10;;
2838;SDS011;1427;48.510;9.060;2023-11-21T01:55:14;45.40;;;2.00;;
2838;SDS011;1427;48.510;9.060;2023-11-21T01:57:54;45.00;;;1.70;;
2838;SDS011;1427;48.510;9.060;2023-11-21T02:00:23;45.70;;;3.00;;
2838;SDS011;1427;48.510;9.060;2023-11-21T02:02:55;44.67;;;1.90;;
2838;SDS011;1427;48.510;9.060;2023-11-21T02:05:24;44.90;;;1.80;;
2838;SDS011;1427;48.510;9.060;2023-11-21T02:07:52;45.27;;;2.13;;
2838;SDS011;1427;48.510;9.060;2023-11-21T02:10:21;44.93;;;2.07;;
2838;SDS011;1427;48.510;9.060;2023-11-21T02:12:50;44.90;;;1.70;;
2838;SDS011;1427;48.510;9.060;2023-11-21T02:15:19;44.87;;;1.80;;
2838;SDS011;1427;48.510;9.060;2023-11-21T02:17:47;45.97;;;2.10;;
2838;SDS011;1427;48.510;9.060;2023-11-21T02:20:19;44.83;;;2.50;;
2838;SDS011;1427;48.510;9.060;2023-11-21T02:22:50;45.17;;;1.90;;
2838;SDS011;1427;48.510;9.060;2023-11-21T02:25:22;45.13;;;2.20;;
2838;SDS011;1427;48.510;9.060;2023-11-21T02:27:50;45.10;;;2.20;;
2838;SDS011;1427;48.510;9.060;2023-11-21T02:30:18;45.07;;;1.90;;
2838;SDS011;1427;48.510;9.060;2023-11-21T02:32:47;45.23;;;2.07;;
2838;SDS011;1427;48.510;9.060;2023-11-21T02:35:16;45.40;;;2.37;;
2838;SDS011;1427;48.510;9.060;2023-11-21T02:37:44;45.13;;;1.90;;
2838;SDS011;1427;48.510;9.060;2023-11-21T02:40:13;45.37;;;2.33;;
2838;SDS011;1427;48.510;9.060;2023-11-21T02:42:44;45.07;;;2.30;;
2838;SDS011;1427;48.510;9.060;2023-11-21T02:45:13;44.97;;;1.67;;
2838;SDS011;1427;48.510;9.060;2023-11-21T02:47:43;45.10;;;2.37;;
2838;SDS011;1427;48.510;9.060;2023-11-21T02:50:12;44.60;;;1.57;;
2838;SDS011;1427;48.510;9.060;2023-11-21T02:52:40;45.17;;;1.97;;
2838;SDS011;1427;48.510;9.060;2023-11-21T02:55:08;45.07;;;1.63;;
2838;SDS011;1427;48.510;9.060;2023-11-21T02:57:40;45.33;;;2.27;;
2838;SDS011;1427;48.510;9.060;2023-11-21T03:00:08;45.03;;;1.70;;
2838;SDS011;1427;48.510;9.060;2023-11-21T03:02:39;45.07;;;1.90;;
2838;SDS011;1427;48.510;9.060;2023-11-21T03:05:08;44.77;;;1.77;;
2838;SDS011;1427;48.510;9.060;2023-11-21T03:07:37;45.30;;;2.37;;
2838;SDS011;1427;48.510;9.060;2023-11-21T03:10:07;45.27;;;2.20;;
2838;SDS011;1427;48.510;9.060;2023-11-21T03:12:37;44.87;;;1.57;;
2838;SDS011;1427;48.510;9.060;2023-11-21T03:15:07;45.03;;;2.20;;
2838;SDS011;1427;48.510;9.060;2023-11-21T03:17:36;45.63;;;2.77;;
2838;SDS011;1427;48.510;9.060;2023-11-21T03:20:05;44.83;;;1.80;;
2838;SDS011;1427;48.510;9.060;2023-11-21T03:22:37;45.03;;;1.73;;
2838;SDS011;1427;48.510;9.060;2023-11-21T03:25:06;44.80;;;1.97;;
2838;SDS011;1427;48.510;9.060;2023-11-21T03:27:37;44.80;;;1.87;;
2838;SDS011;1427;48.510;9.060;2023-11-21T03:30:08;45.20;;;2.10;;
2838;SDS011;1427;48.510;9.060;2023-11-21T03:32:37;44.80;;;2.00;;
2838;SDS011;1427;48.510;9.060;2023-11-21T03:35:06;44.80;;;2.00;;
2838;SDS011;1427;48.510;9.060;2023-11-21T03:37:34;44.90;;;1.73;;
2838;SDS011;1427;48.510;9.060;2023-11-21T03:40:05;44.70;;;1.70;;
2838;SDS011;1427;48.510;9.060;2023-11-21T03:42:34;45.07;;;2.13;;
2838;SDS011;1427;48.510;9.060;2023-11-21T03:45:03;45.10;;;2.30;;
2838;SDS011;1427;48.510;9.060;2023-11-21T03:47:33;45.10;;;1.80;;
2838;SDS011;1427;48.510;9.060;2023-11-21T03:50:01;44.90;;;1.97;;
2838;SDS011;1427;48.510;9.060;2023-11-21T03:52:30;45.10;;;1.70;;
2838;SDS011;1427;48.510;9.060;2023-11-21T03:54:58;45.00;;;1.70;;
2838;SDS011;1427;48.510;9.060;2023-11-21T03:57:26;44.97;;;1.90;;
2838;SDS011;1427;48.510;9.060;2023-11-21T03:59:55;44.87;;;1.53;;
2838;SDS011;1427;48.510;9.060;2023-11-21T04:02:23;45.20;;;1.83;;
2838;SDS011;1427;48.510;9.060;2023-11-21T04:04:53;45.00;;;1.93;;
2838;SDS011;1427;48.510;9.060;2023-11-21T04:07:23;45.10;;;1.70;;
2838;SDS011;1427;48.510;9.060;2023-11-21T04:09:51;45.00;;;1.53;;
2838;SDS011;1427;48.510;9.060;2023-11-21T04:12:20;44.87;;;1.80;;
2838;SDS011;1427;48.510;9.060;2023-11-21T04:14:48;45.27;;;1.97;;
2838;SDS011;1427;48.510;9.060;2023-11-21T04:17:18;45.07;;;2.00;;
2838;SDS011;1427;48.510;9.060;2023-11-21T04:19:46;44.93;;;1.70;;
2838;SDS011;1427;48.510;9.060;2023-11-21T04:22:16;45.27;;;2.30;;
2838;SDS011;1427;48.510;9.060;2023-11-21T04:24:44;45.30;;;2.20;;
2838;SDS011;1427;48.510;9.060;2023-11-21T04:27:12;45.13;;;1.60;;
2838;SDS011;1427;48.510;9.060;2023-11-21T04:29:40;45.30;;;2.00;;
2838;SDS011;1427;48.510;9.060;2023-11-21T04:32:08;44.70;;;1.40;;
2838;SDS011;1427;48.510;9.060;2023-11-21T04:34:37;46.50;;;2.03;;
2838;SDS011;1427;48.510;9.060;2023-11-21T04:37:05;45.23;;;2.03;;
2838;SDS011;1427;48.510;9.060;2023-11-21T04:39:34;44.97;;;1.67;;
2838;SDS011;1427;48.510;9.060;2023-11-21T04:42:02;45.00;;;1.63;;
2838;SDS011;1427;48.510;9.060;2023-11-21T04:44:31;45.37;;;2.23;;
2838;SDS011;1427;48.510;9.060;2023-11-21T04:46:59;45.07;;;1.73;;
2838;SDS011;1427;48.510;9.060;2023-11-21T04:49:28;45.20;;;1.73;;
2838;SDS011;1427;48.510;9.060;2023-11-21T04:51:56;44.97;;;1.60;;
2838;SDS011;1427;48.510;9.060;2023-11-21T04:54:24;44.87;;;1.60;;
2838;SDS011;1427;48.510;9.060;2023-11-21T04:56:55;44.90;;;1.60;;
2838;SDS011;1427;48.510;9.060;2023-11-21T04:59:23;45.07;;;1.93;;
2838;SDS011;1427;48.510;9.060;2023-11-21T05:01:53;45.43;;;1.70;;
2838;SDS011;1427;48.510;9.060;2023-11-21T05:04:21;45.17;;;2.17;;
2838;SDS011;1427;48.510;9.060;2023-11-21T05:06:50;45.07;;;1.80;;
2838;SDS011;1427;48.510;9.060;2023-11-21T05:09:18;45.00;;;1.60;;
2838;SDS011;1427;48.510;9.060;2023-11-21T05:11:46;44.77;;;1.50;;
2838;SDS011;1427;48.510;9.060;2023-11-21T05:14:15;45.17;;;2.33;;
2838;SDS011;1427;48.510;9.060;2023-11-21T05:16:45;45.20;;;2.20;;
2838;SDS011;1427;48.510;9.060;2023-11-21T05:19:13;45.07;;;1.60;;
2838;SDS011;1427;48.510;9.060;2023-11-21T05:21:41;45.20;;;2.20;;
2838;SDS011;1427;48.510;9.060;2023-11-21T05:24:09;45.40;;;2.40;;
2838;SDS011;1427;48.510;9.060;2023-11-21T05:26:37;44.97;;;1.90;;
2838;SDS011;1427;48.510;9.060;2023-11-21T05:29:06;45.10;;;1.90;;
2838;SDS011;1427;48.510;9.060;2023-11-21T05:31:36;45.00;;;1.70;;
2838;SDS011;1427;48.510;9.060;2023-11-21T05:34:04;44.97;;;1.80;;
2838;SDS011;1427;48.510;9.060;2023-11-21T05:36:32;45.20;;;2.20;;
2838;SDS011;1427;48.510;9.060;2023-11-21T05:39:00;45.00;;;1.67;;
2838;SDS011;1427;48.510;9.060;2023-11-21T05:41:30;45.03;;;1.70;;
2838;SDS011;1427;48.510;9.060;2023-11-21T05:43:58;45.37;;;1.80;;
2838;SDS011;1427;48.510;9.060;2023-11-21T05:46:27;45.73;;;1.97;;
2838;SDS011;1427;48.510;9.060;2023-11-21T05:48:57;45.23;;;1.93;;
2838;SDS011;1427;48.510;9.060;2023-11-21T05:51:25;45.07;;;1.87;;
2838;SDS011;1427;48.510;9.060;2023-11-21T05:53:53;45.20;;;2.20;;
2838;SDS011;1427;48.510;9.060;2023-11-21T05:56:21;46.30;;;2.50;;
2838;SDS011;1427;48.510;9.060;2023-11-21T05:58:49;45.10;;;2.00;;
2838;SDS011;1427;48.510;9.060;2023-11-21T06:01:17;44.83;;;1.50;;
2838;SDS011;1427;48.510;9.060;2023-11-21T06:03:45;44.97;;;1.57;;
2838;SDS011;1427;48.510;9.060;2023-11-21T06:06:16;45.00;;;1.77;;
2838;SDS011;1427;48.510;9.060;2023-11-21T06:08:45;44.87;;;1.43;;
2838;SDS011;1427;48.510;9.060;2023-11-21T06:11:13;45.00;;;1.60;;
2838;SDS011;1427;48.510;9.060;2023-11-21T06:13:43;44.97;;;1.70;;
2838;SDS011;1427;48.510;9.060;2023-11-21T06:16:11;44.60;;;1.40;;
2838;SDS011;1427;48.510;9.060;2023-11-21T06:18:42;45.27;;;1.67;;
2838;SDS011;1427;48.510;9.060;2023-11-21T06:21:11;45.50;;;2.60;;
2838;SDS011;1427;48.510;9.060;2023-11-21T06:23:41;44.90;;;1.80;;
2838;SDS011;1427;48.510;9.060;2023-11-21T06:26:09;45.10;;;1.63;;
2838;SDS011;1427;48.510;9.060;2023-11-21T06:28:39;44.77;;;1.70;;
2838;SDS011;1427;48.510;9.060;2023-11-21T06:31:07;44.97;;;1.80;;
2838;SDS011;1427;48.510;9.060;2023-11-21T06:33:37;45.07;;;1.73;;
2838;SDS011;1427;48.510;9.060;2023-11-21T06:36:05;44.60;;;1.50;;
2838;SDS011;1427;48.510;9.060;2023-11-21T06:38:34;44.87;;;1.60;;
2838;SDS011;1427;48.510;9.060;2023-11-21T06:41:03;48.90;;;2.30;;
2838;SDS011;1427;48.510;9.060;2023-11-21T06:43:32;44.80;;;1.50;;
2838;SDS011;1427;48.510;9.060;2023-11-21T06:46:00;44.90;;;1.60;;
2838;SDS011;1427;48.510;9.060;2023-11-21T06:48:28;44.90;;;1.60;;
2838;SDS011;1427;48.510;9.060;2023-11-21T06:50:57;44.83;;;1.43;;
2838;SDS011;1427;48.510;9.060;2023-11-21T06:53:25;45.03;;;1.70;;
2838;SDS011;1427;48.510;9.060;2023-11-21T06:55:53;49.37;;;3.60;;
2838;SDS011;1427;48.510;9.060;2023-11-21T06:58:23;47.00;;;5.50;;
2838;SDS011;1427;48.510;9.060;2023-11-21T07:00:51;47.37;;;6.10;;
2838;SDS011;1427;48.510;9.060;2023-11-21T07:03:21;46.67;;;5.03;;
2838;SDS011;1427;48.510;9.060;2023-11-21T07:05:50;46.03;;;3.67;;
2838;SDS011;1427;48.510;9.060;2023-11-21T07:08:18;46.13;;;3.67;;
2838;SDS011;1427;48.510;9.060;2023-11-21T07:10:46;46.60;;;4.57;;
2838;SDS011;1427;48.510;9.060;2023-11-21T07:13:15;46.40;;;4.23;;
2838;SDS011;1427;48.510;9.060;2023-11-21T07:15:44;58.13;;;8.33;;
2838;SDS011;1427;48.510;9.060;2023-11-21T07:18:13;48.00;;;5.20;;
2838;SDS011;1427;48.510;9.060;2023-11-21T07:20:41;46.20;;;3.50;;
2838;SDS011;1427;48.510;9.060;2023-11-21T07:23:09;47.53;;;4.77;;
2838;SDS011;1427;48.510;9.060;2023-11-21T07:25:37;46.77;;;4.87;;
2838;SDS011;1427;48.510;9.060;2023-11-21T07:28:08;46.73;;;4.07;;
2838;SDS011;1427;48.510;9.060;2023-11-21T07:30:36;46.80;;;4.50;;
2838;SDS011;1427;48.510;9.060;2023-11-21T07:33:06;46.13;;;4.10;;
2838;SDS011;1427;48.510;9.060;2023-11-21T07:35:34;46.40;;;3.73;;
2838;SDS011;1427;48.510;9.060;2023-11-21T07:38:03;46.77;;;4.73;;
2838;SDS011;1427;48.510;9.060;2023-11-21T07:40:31;45.90;;;3.50;;
2838;SDS011;1427;48.510;9.060;2023-11-21T07:42:59;46.47;;;4.40;;
2838;SDS011;1427;48.510;9.060;2023-11-21T07:45:27;47.37;;;5.73;;
2838;SDS011;1427;48.510;9.060;2023-11-21T07:47:55;46.57;;;4.43;;
2838;SDS011;1427;48.510;9.060;2023-11-21T07:50:25;46.07;;;4.00;;
2838;SDS011;1427;48.510;9.060;2023-11-21T07:52:54;46.53;;;4.40;;
2838;SDS011;1427;48.510;9.060;2023-11-21T07:55:22;46.90;;;4.53;;
2838;SDS011;1427;48.510;9.060;2023-11-21T07:57:51;45.97;;;3.67;;
2838;SDS011;1427;48.510;9.060;2023-11-21T08:00:19;45.93;;;4.00;;
2838;SDS011;1427;48.510;9.060;2023-11-21T08:02:47;48.23;;;4.70;;
2838;SDS011;1427;48.510;9.060;2023-11-21T08:05:16;47.00;;;5.13;;
2838;SDS011;1427;48.510;9.060;2023-11-21T08:07:58;46.60;;;5.03;;
2838;SDS011;1427;48.510;9.060;2023-11-21T08:10:27;62.13;;;7.27;;
2838;SDS011;1427;48.510;9.060;2023-11-21T08:12:56;77.03;;;5.33;;
2838;SDS011;1427;48.510;9.060;2023-11-21T08:15:24;46.20;;;4.20;;
2838;SDS011;1427;48.510;9.060;2023-11-21T08:17:52;46.10;;;4.30;;
2838;SDS011;1427;48.510;9.060;2023-11-21T08:20:21;46.20;;;3.90;;
2838;SDS011;1427;48.510;9.060;2023-11-21T08:22:49;46.17;;;4.00;;
2838;SDS011;1427;48.510;9.060;2023-11-21T08:25:19;46.20;;;4.07;;
2838;SDS011;1427;48.510;9.060;2023-11-21T08:27:48;46.70;;;4.87;;
2838;SDS011;1427;48.510;9.060;2023-11-21T08:30:16;48.57;;;4.23;;
2838;SDS011;1427;48.510;9.060;2023-11-21T08:32:46;58.10;;;3.73;;
2838;SDS011;1427;48.510;9.060;2023-11-21T08:35:14;45.90;;;3.73;;
2838;SDS011;1427;48.510;9.060;2023-11-21T08:37:43;46.40;;;3.80;;
2838;SDS011;1427;48.510;9.060;2023-11-21T08:40:14;47.30;;;5.03;;
2838;SDS011;1427;48.510;9.060;2023-11-21T08:42:45;46.77;;;4.40;;
2838;SDS011;1427;48.510;9.060;2023-11-21T08:45:14;47.43;;;4.53;;
2838;SDS011;1427;48.510;9.060;2023-11-21T08:47:43;46.40;;;3.73;;
2838;SDS011;1427;48.510;9.060;2023-11-21T08:50:12;45.90;;;3.63;;
2838;SDS011;1427;48.510;9.060;2023-11-21T08:52:41;45.53;;;3.63;;
2838;SDS011;1427;48.510;9.060;2023-11-21T08:55:09;46.60;;;4.80;;
2838;SDS011;1427;48.510;9.060;2023-11-21T08:57:39;45.90;;;3.73;;
2838;SDS011;1427;48.510;9.060;2023-11-21T09:00:10;45.80;;;3.83;;
2838;SDS011;1427;48.510;9.060;2023-11-21T09:02:39;46.30;;;4.70;;
2838;SDS011;1427;48.510;9.060;2023-11-21T09:05:08;46.03;;;4.00;;
2838;SDS011;1427;48.510;9.060;2023-11-21T09:07:38;46.17;;;4.17;;
2838;SDS011;1427;48.510;9.060;2023-11-21T09:10:07;46.30;;;4.00;;
2838;SDS011;1427;48.510;9.060;2023-11-21T09:12:36;46.47;;;4.07;;
2838;SDS011;1427;48.510;9.060;2023-11-21T09:15:05;46.40;;;4.13;;
2838;SDS011;1427;48.510;9.060;2023-11-21T09:17:37;46.47;;;4.60;;
2838;SDS011;1427;48.510;9.060;2023-11-21T09:20:07;46.50;;;4.97;;
2838;SDS011;1427;48.510;9.060;2023-11-21T09:22:37;46.57;;;3.30;;
2838;SDS011;1427;48.510;9.060;2023-11-21T09:25:05;47.03;;;5.10;;
2838;SDS011;1427;48.510;9.060;2023-11-21T09:27:35;47.50;;;4.67;;
2838;SDS011;1427;48.510;9.060;2023-11-21T09:30:03;47.53;;;4.87;;
2838;SDS011;1427;48.510;9.060;2023-11-21T09:32:35;45.37;;;3.37;;
2838;SDS011;1427;48.510;9.060;2023-11-21T09:35:07;47.90;;;4.40;;
2838;SDS011;1427;48.510;9.060;2023-11-21T09:37:36;46.23;;;4.17;;
2838;SDS011;1427;48.510;9.060;2023-11-21T09:40:06;47.07;;;4.93;;
2838;SDS011;1427;48.510;9.060;2023-11-21T09:42:42;46.40;;;4.30;;
2838;SDS011;1427;48.510;9.060;2023-11-21T09:45:17;46.63;;;3.87;;
2838;SDS011;1427;48.510;9.060;2023-11-21T09:47:51;46.50;;;4.20;;
2838;SDS011;1427;48.510;9.060;2023-11-21T09:50:20;45.53;;;3.10;;
2838;SDS011;1427;48.510;9.060;2023-11-21T09:52:57;46.60;;;4.43;;
2838;SDS011;1427;48.510;9.060;2023-11-21T09:55:28;46.10;;;3.67;;
2838;SDS011;1427;48.510;9.060;2023-11-21T09:57:58;46.70;;;5.00;;
2838;SDS011;1427;48.510;9.060;2023-11-21T10:00:27;46.30;;;4.10;;
2838;SDS011;1427;48.510;9.060;2023-11-21T10:02:59;46.00;;;3.37;;
2838;SDS011;1427;48.510;9.060;2023-11-21T10:05:29;46.60;;;4.33;;
2838;SDS011;1427;48.510;9.060;2023-11-21T10:08:00;46.87;;;4.30;;
2838;SDS011;1427;48.510;9.060;2023-11-21T10:10:29;45.97;;;3.87;;
2838;SDS011;1427;48.510;9.060;2023-11-21T10:13:01;46.97;;;4.73;;
2838;SDS011;1427;48.510;9.060;2023-11-21T10:15:32;46.37;;;4.10;;
2838;SDS011;1427;48.510;9.060;2023-11-21T10:18:03;45.80;;;3.43;;
2838;SDS011;1427;48.510;9.060;2023-11-21T10:20:33;45.97;;;3.80;;
2838;SDS011;1427;48.510;9.060;2023-11-21T10:23:04;46.07;;;3.57;;
2838;SDS011;1427;48.510;9.060;2023-11-21T10:25:34;49.17;;;5.00;;
2838;SDS011;1427;48.510;9.060;2023-11-21T10:28:04;45.80;;;3.53;;
2838;SDS011;1427;48.510;9.060;2023-11-21T10:30:33;45.57;;;3.20;;
2838;SDS011;1427;48.510;9.060;2023-11-21T10:33:05;46.00;;;3.67;;
2838;SDS011;1427;48.510;9.060;2023-11-21T10:35:38;46.17;;;4.07;;
2838;SDS011;1427;48.510;9.060;2023-11-21T10:38:13;46.30;;;4.17;;
2838;SDS011;1427;48.510;9.060;2023-11-21T10:40:41;46.50;;;4.50;;
2838;SDS011;1427;48.510;9.060;2023-11-21T10:43:13;46.10;;;4.07;;
2838;SDS011;1427;48.510;9.060;2023-11-21T10:45:43;45.70;;;3.27;;
2838;SDS011;1427;48.510;9.060;2023-11-21T10:48:14;46.10;;;4.07;;
2838;SDS011;1427;48.510;9.060;2023-11-21T10:50:43;45.80;;;3.50;;
2838;SDS011;1427;48.510;9.060;2023-11-21T10:53:13;47.90;;;5.70;;
2838;SDS011;1427;48.510;9.060;2023-11-21T10:55:41;46.10;;;4.17;;
2838;SDS011;1427;48.510;9.060;2023-11-21T10:58:12;46.47;;;4.87;;
2838;SDS011;1427;48.510;9.060;2023-11-21T11:00:41;46.00;;;3.87;;
2838;SDS011;1427;48.510;9.060;2023-11-21T11:03:13;45.87;;;3.70;;
2838;SDS011;1427;48.510;9.060;2023-11-21T11:05:43;46.27;;;4.10;;
2838;SDS011;1427;48.510;9.060;2023-11-21T11:08:19;45.37;;;3.00;;
2838;SDS011;1427;48.510;9.060;2023-11-21T11:10:54;45.87;;;3.87;;
2838;SDS011;1427;48.510;9.060;2023-11-21T11:13:22;46.67;;;4.70;;
2838;SDS011;1427;48.510;9.060;2023-11-21T11:15:52;45.83;;;3.50;;
2838;SDS011;1427;48.510;9.060;2023-11-21T11:18:28;45.87;;;3.97;;
2838;SDS011;1427;48.510;9.060;2023-11-21T11:20:59;46.40;;;4.77;;
2838;SDS011;1427;48.510;9.060;2023-11-21T11:23:39;46.20;;;4.13;;
2838;SDS011;1427;48.510;9.060;2023-11-21T11:26:20;46.10;;;4.30;;
2838;SDS011;1427;48.510;9.060;2023-11-21T11:28:57;46.50;;;4.90;;
2838;SDS011;1427;48.510;9.060;2023-11-21T11:31:36;45.70;;;3.70;;
2838;SDS011;1427;48.510;9.060;2023-11-21T11:34:20;47.30;;;4.23;;
2838;SDS011;1427;48.510;9.060;2023-11-21T11:36:59;46.77;;;4.27;;
2838;SDS011;1427;48.510;9.060;2023-11-21T11:39:30;46.47;;;4.23;;
2838;SDS011;1427;48.510;9.060;2023-11-21T11:42:03;46.20;;;4.33;;
2838;SDS011;1427;48.510;9.060;2023-11-21T11:44:49;46.57;;;4.50;;
2838;SDS011;1427;48.510;9.060;2023-11-21T11:47:20;49.23;;;5.50;;
2838;SDS011;1427;48.510;9.060;2023-11-21T11:49:56;46.37;;;4.50;;
2838;SDS011;1427;48.510;9.060;2023-11-21T11:52:37;48.00;;;4.37;;
2838;SDS011;1427;48.510;9.060;2023-11-21T11:55:07;47.60;;;6.20;;
2838;SDS011;1427;48.510;9.060;2023-11-21T11:57:37;46.37;;;4.00;;
2838;SDS011;1427;48.510;9.060;2023-11-21T12:00:16;45.97;;;3.97;;
2838;SDS011;1427;48.510;9.060;2023-11-21T12:02:47;45.80;;;3.80;;
2838;SDS011;1427;48.510;9.060;2023-11-21T12:05:19;46.03;;;4.07;;
2838;SDS011;1427;48.510;9.060;2023-11-21T12:07:50;45.90;;;3.73;;
2838;SDS011;1427;48.510;9.060;2023-11-21T12:10:20;51.10;;;5.63;;
2838;SDS011;1427;48.510;9.060;2023-11-21T12:12:51;45.80;;;3.60;;
2838;SDS011;1427;48.510;9.060;2023-11-21T12:15:21;47.07;;;5.67;;
2838;SDS011;1427;48.510;9.060;2023-11-21T12:17:49;45.50;;;3.57;;
2838;SDS011;1427;48.510;9.060;2023-11-21T12:20:20;45.60;;;3.70;;
2838;SDS011;1427;48.510;9.060;2023-11-21T12:22:49;46.00;;;4.07;;
2838;SDS011;1427;48.510;9.060;2023-11-21T12:25:18;46.10;;;4.17;;
2838;SDS011;1427;48.510;9.060;2023-11-21T12:27:48;46.30;;;4.10;;
2838;SDS011;1427;48.510;9.060;2023-11-21T12:30:17;46.37;;;4.30;;
2838;SDS011;1427;48.510;9.060;2023-11-21T12:32:49;46.27;;;4.10;;
2838;SDS011;1427;48.510;9.060;2023-11-21T12:35:21;46.07;;;3.93;;
2838;SDS011;1427;48.510;9.060;2023-11-21T12:37:51;46.57;;;5.23;;
2838;SDS011;1427;48.510;9.060;2023-11-21T12:40:20;46.40;;;4.30;;
2838;SDS011;1427;48.510;9.060;2023-11-21T12:42:51;46.97;;;5.47;;
2838;SDS011;1427;48.510;9.060;2023-11-21T12:45:21;47.10;;;4.63;;
2838;SDS011;1427;48.510;9.060;2023-11-21T12:47:53;47.30;;;5.10;;
2838;SDS011;1427;48.510;9.060;2023-11-21T12:50:25;47.53;;;5.00;;
2838;SDS011;1427;48.510;9.060;2023-11-21T12:52:58;49.47;;;3.93;;
2838;SDS011;1427;48.510;9.060;2023-11-21T12:55:29;46.20;;;3.93;;
2838;SDS011;1427;48.510;9.060;2023-11-21T12:57:59;46.60;;;4.23;;
2838;SDS011;1427;48.510;9.060;2023-11-21T13:00:35;49.20;;;4.37;;
2838;SDS011;1427;48.510;9.060;2023-11-21T13:03:05;46.30;;;3.87;;
2838;SDS011;1427;48.510;9.060;2023-11-21T13:05:37;46.70;;;4.77;;
2838;SDS011;1427;48.510;9.060;2023-11-21T13:08:09;48.47;;;4.97;;
2838;SDS011;1427;48.510;9.060;2023-11-21T13:10:39;45.63;;;3.00;;
2838;SDS011;1427;48.510;9.060;2023-11-21T13:15:38;46.70;;;4.90;;
2838;SDS011;1427;48.510;9.060;2023-11-21T13:18:07;47.03;;;4.67;;
2838;SDS011;1427;48.510;9.060;2023-11-21T13:20:39;46.10;;;3.47;;
2838;SDS011;1427;48.510;9.060;2023-11-21T13:23:09;46.57;;;4.30;;
2838;SDS011;1427;48.510;9.060;2023-11-21T13:25:38;46.50;;;3.93;;
2838;SDS011;1427;48.510;9.060;2023-11-21T13:28:08;46.40;;;3.90;;
2838;SDS011;1427;48.510;9.060;2023-11-21T13:30:38;46.23;;;4.17;;
2838;SDS011;1427;48.510;9.060;2023-11-21T13:33:06;46.33;;;4.00;;
2838;SDS011;1427;48.510;9.060;2023-11-21T13:35:36;46.30;;;3.97;;
2838;SDS011;1427;48.510;9.060;2023-11-21T13:38:08;46.70;;;4.93;;
2838;SDS011;1427;48.510;9.060;2023-11-21T13:40:38;47.27;;;5.03;;
2838;SDS011;1427;48.510;9.060;2023-11-21T13:43:09;46.50;;;4.30;;
2838;SDS011;1427;48.510;9.060;2023-11-21T13:45:37;46.10;;;4.03;;
2838;SDS011;1427;48.510;9.060;2023-11-21T13:48:11;46.33;;;4.20;;
2838;SDS011;1427;48.510;9.060;2023-11-21T13:50:42;46.60;;;4.37;;
2838;SDS011;1427;48.510;9.060;2023-11-21T13:53:15;86.00;;;5.27;;
2838;SDS011;1427;48.510;9.060;2023-11-21T13:55:48;48.30;;;4.77;;
2838;SDS011;1427;48.510;9.060;2023-11-21T13:58:17;46.60;;;4.47;;
2838;SDS011;1427;48.510;9.060;2023-11-21T14:00:49;46.57;;;4.50;;
2838;SDS011;1427;48.510;9.060;2023-11-21T14:03:22;46.90;;;4.10;;
2838;SDS011;1427;48.510;9.060;2023-11-21T14:06:00;47.37;;;6.00;;
2838;SDS011;1427;48.510;9.060;2023-11-21T14:08:35;48.67;;;5.23;;
2838;SDS011;1427;48.510;9.060;2023-11-21T14:11:03;62.80;;;6.23;;
2838;SDS011;1427;48.510;9.060;2023-11-21T14:13:33;48.37;;;5.10;;
2838;SDS011;1427;48.510;9.060;2023-11-21T14:16:01;48.10;;;4.20;;
2838;SDS011;1427;48.510;9.060;2023-11-21T14:18:33;46.87;;;4.60;;
2838;SDS011;1427;48.510;9.060;2023-11-21T14:21:06;46.40;;;4.10;;
2838;SDS011;1427;48.510;9.060;2023-11-21T14:23:37;46.60;;;4.33;;
2838;SDS011;1427;48.510;9.060;2023-11-21T14:26:05;46.40;;;3.80;;
2838;SDS011;1427;48.510;9.060;2023-11-21T14:28:33;46.10;;;4.13;;
2838;SDS011;1427;48.510;9.060;2023-11-21T14:31:02;46.60;;;3.80;;
2838;SDS011;1427;48.510;9.060;2023-11-21T14:33:31;50.47;;;6.13;;
2838;SDS011;1427;48.510;9.060;2023-11-21T14:35:59;46.20;;;3.90;;
2838;SDS011;1427;48.510;9.060;2023-11-21T14:38:29;46.97;;;4.20;;
2838;SDS011;1427;48.510;9.060;2023-11-21T14:40:57;46.53;;;4.13;;
2838;SDS011;1427;48.510;9.060;2023-11-21T14:43:25;45.93;;;3.80;;
2838;SDS011;1427;48.510;9.060;2023-11-21T14:45:56;46.43;;;4.33;;
2838;SDS011;1427;48.510;9.060;2023-11-21T14:48:25;46.37;;;4.10;;
2838;SDS011;1427;48.510;9.060;2023-11-21T14:51:08;46.30;;;4.00;;
2838;SDS011;1427;48.510;9.060;2023-11-21T14:53:55;46.40;;;4.20;;
2838;SDS011;1427;48.510;9.060;2023-11-21T14:56:26;46.40;;;3.97;;
2838;SDS011;1427;48.510;9.060;2023-11-21T14:58:57;46.27;;;4.20;;
2838;SDS011;1427;48.510;9.060;2023-11-21T15:01:26;46.10;;;3.80;;
2838;SDS011;1427;48.510;9.060;2023-11-21T15:04:09;46.70;;;4.03;;
2838;SDS011;1427;48.510;9.060;2023-11-21T15:06:50;45.93;;;3.63;;
2838;SDS011;1427;48.510;9.060;2023-11-21T15:09:21;46.47;;;4.83;;
2838;SDS011;1427;48.510;9.060;2023-11-21T15:12:02;46.60;;;4.83;;
2838;SDS011;1427;48.510;9.060;2023-11-21T15:14:41;45.80;;;3.63;;
2838;SDS011;1427;48.510;9.060;2023-11-21T15:17:11;45.17;;;2.07;;
2838;SDS011;1427;48.510;9.060;2023-11-21T15:19:45;45.07;;;1.70;;